createdAt,value
2018-03-18T00:00:51.281Z,1011.7
2018-03-18T00:01:53.698Z,1011.7
2018-03-18T00:02:56.124Z,1011.7
2018-03-18T00:03:58.519Z,1011.7
2018-03-18T00:05:00.935Z,1011.7
2018-03-18T00:06:03.362Z,1011.7
2018-03-18T00:07:05.772Z,1011.7
2018-03-18T00:08:08.189Z,1011.8
2018-03-18T00:09:10.598Z,1011.7
2018-03-18T00:10:13.016Z,1011.7
2018-03-18T00:11:15.444Z,1011.7
2018-03-18T00:12:17.862Z,1011.7
2018-03-18T00:13:20.651Z,1011.8
2018-03-18T00:14:23.061Z,1011.8
2018-03-18T00:15:25.495Z,1011.7
2018-03-18T00:16:28.195Z,1011.8
2018-03-18T00:17:30.613Z,1011.7
2018-03-18T00:18:33.030Z,1011.8
2018-03-18T00:19:35.512Z,1011.8
2018-03-18T00:20:37.860Z,1011.8
2018-03-18T00:21:40.573Z,1011.9
2018-03-18T00:22:42.978Z,1011.8
2018-03-18T00:23:45.387Z,1011.7
2018-03-18T00:24:47.807Z,1011.8
2018-03-18T00:25:50.221Z,1011.8
2018-03-18T00:26:52.643Z,1011.8
2018-03-18T00:27:55.346Z,1011.8
2018-03-18T00:28:57.758Z,1011.8
2018-03-18T00:30:00.184Z,1011.9
2018-03-18T00:31:02.594Z,1011.8
2018-03-18T00:32:05.012Z,1011.8
2018-03-18T00:33:07.407Z,1011.8
2018-03-18T00:34:09.824Z,1011.9
2018-03-18T00:35:12.239Z,1011.8
2018-03-18T00:36:14.665Z,1011.8
2018-03-18T00:37:17.065Z,1011.8
2018-03-18T00:38:19.480Z,1011.9
2018-03-18T00:39:22.202Z,1011.8
2018-03-18T00:40:24.899Z,1011.8
2018-03-18T00:41:27.320Z,1011.8
2018-03-18T00:42:30.025Z,1011.9
2018-03-18T00:43:32.728Z,1011.8
2018-03-18T00:44:35.426Z,1011.8
2018-03-18T00:45:38.128Z,1011.8
2018-03-18T00:46:40.553Z,1011.8
2018-03-18T00:47:42.965Z,1011.8
2018-03-18T00:48:45.669Z,1011.9
2018-03-18T00:49:48.086Z,1011.9
2018-03-18T00:50:50.496Z,1011.8
2018-03-18T00:51:52.917Z,1011.8
2018-03-18T00:52:55.330Z,1011.9
2018-03-18T00:53:57.740Z,1011.9
2018-03-18T00:55:00.164Z,1011.9
2018-03-18T00:56:03.166Z,1011.9
2018-03-18T00:57:05.586Z,1011.9
2018-03-18T00:58:08.883Z,1011.9
2018-03-18T00:59:11.587Z,1011.9
2018-03-18T01:00:13.995Z,1011.9
2018-03-18T01:01:16.427Z,1011.9
2018-03-18T01:02:18.837Z,1011.9
2018-03-18T01:03:21.258Z,1011.9
2018-03-18T01:04:23.683Z,1011.8
2018-03-18T01:05:26.104Z,1011.9
2018-03-18T01:06:28.817Z,1011.9
2018-03-18T01:07:31.227Z,1011.8
2018-03-18T01:08:33.643Z,1011.8
2018-03-18T01:09:36.061Z,1011.9
2018-03-18T01:10:38.482Z,1011.8
2018-03-18T01:11:40.904Z,1011.9
2018-03-18T01:12:43.305Z,1011.9
2018-03-18T01:13:45.715Z,1011.9
2018-03-18T01:14:48.143Z,1011.9
2018-03-18T01:15:50.556Z,1011.9
2018-03-18T01:16:52.980Z,1011.9
2018-03-18T01:17:55.385Z,1011.9
2018-03-18T01:18:57.803Z,1011.9
2018-03-18T01:20:00.490Z,1011.9
2018-03-18T01:21:02.915Z,1011.9
2018-03-18T01:22:05.605Z,1011.8
2018-03-18T01:23:08.025Z,1011.9
2018-03-18T01:24:10.444Z,1011.9
2018-03-18T01:25:12.852Z,1011.9
2018-03-18T01:26:15.272Z,1011.8
2018-03-18T01:27:17.691Z,1011.8
2018-03-18T01:28:20.095Z,1011.8
2018-03-18T01:29:22.507Z,1011.7
2018-03-18T01:30:24.921Z,1011.9
2018-03-18T01:31:27.338Z,1011.8
2018-03-18T01:32:29.758Z,1011.8
2018-03-18T01:33:32.182Z,1011.8
2018-03-18T01:34:34.584Z,1011.8
2018-03-18T01:35:37.017Z,1011.8
2018-03-18T01:36:39.709Z,1011.8
2018-03-18T01:37:42.123Z,1011.8
2018-03-18T01:38:44.848Z,1011.8
2018-03-18T01:39:47.260Z,1011.8
2018-03-18T01:40:49.674Z,1011.9
2018-03-18T01:41:52.380Z,1011.7
2018-03-18T01:42:54.798Z,1011.8
2018-03-18T01:43:57.212Z,1011.7
2018-03-18T01:44:59.617Z,1011.9
2018-03-18T01:46:02.049Z,1011.8
2018-03-18T01:47:04.470Z,1011.7
2018-03-18T01:48:06.881Z,1011.8
2018-03-18T01:49:09.303Z,1011.7
2018-03-18T01:50:11.714Z,1011.7
2018-03-18T01:51:14.138Z,1011.8
2018-03-18T01:52:16.845Z,1011.7
2018-03-18T01:53:19.539Z,1011.7
2018-03-18T01:54:21.951Z,1011.7
2018-03-18T01:55:24.374Z,1011.7
2018-03-18T01:56:26.784Z,1011.7
2018-03-18T01:57:29.197Z,1011.7
2018-03-18T01:58:31.608Z,1011.6
2018-03-18T01:59:34.020Z,1011.7
2018-03-18T02:00:36.446Z,1011.7
2018-03-18T02:01:38.867Z,1011.8
2018-03-18T02:02:41.279Z,1011.8
2018-03-18T02:03:43.694Z,1011.7
2018-03-18T02:04:46.392Z,1011.8
2018-03-18T02:05:48.812Z,1011.7
2018-03-18T02:06:51.228Z,1011.7
2018-03-18T02:07:53.642Z,1011.6
2018-03-18T02:08:56.050Z,1011.8
2018-03-18T02:09:58.481Z,1011.8
2018-03-18T02:11:01.187Z,1011.8
2018-03-18T02:12:03.602Z,1011.8
2018-03-18T02:13:06.615Z,1011.8
2018-03-18T02:14:09.029Z,1011.7
2018-03-18T02:15:11.447Z,1011.8
2018-03-18T02:16:13.856Z,1011.7
2018-03-18T02:17:16.570Z,1011.8
2018-03-18T02:18:18.973Z,1011.7
2018-03-18T02:19:21.397Z,1011.7
2018-03-18T02:20:23.801Z,1011.7
2018-03-18T02:21:26.234Z,1011.7
2018-03-18T02:22:28.640Z,1011.7
2018-03-18T02:23:31.056Z,1011.7
2018-03-18T02:24:33.466Z,1011.7
2018-03-18T02:25:35.886Z,1011.7
2018-03-18T02:26:38.282Z,1011.7
2018-03-18T02:27:41.001Z,1011.7
2018-03-18T02:28:43.411Z,1011.8
2018-03-18T02:29:45.828Z,1011.8
2018-03-18T02:30:48.240Z,1011.8
2018-03-18T02:31:50.654Z,1011.8
2018-03-18T02:32:53.060Z,1011.8
2018-03-18T02:33:55.790Z,1011.7
2018-03-18T02:34:58.479Z,1011.7
2018-03-18T02:36:01.195Z,1011.7
2018-03-18T02:37:03.609Z,1011.7
2018-03-18T02:38:06.025Z,1011.7
2018-03-18T02:39:08.440Z,1011.8
2018-03-18T02:40:11.153Z,1011.8
2018-03-18T02:41:13.560Z,1011.8
2018-03-18T02:42:15.975Z,1011.7
2018-03-18T02:43:18.388Z,1011.8
2018-03-18T02:44:20.802Z,1011.8
2018-03-18T02:45:23.207Z,1011.8
2018-03-18T02:46:25.631Z,1011.8
2018-03-18T02:47:28.043Z,1011.8
2018-03-18T02:48:30.458Z,1011.8
2018-03-18T02:49:32.878Z,1011.8
2018-03-18T02:50:35.588Z,1011.8
2018-03-18T02:51:37.999Z,1011.8
2018-03-18T02:52:40.713Z,1011.8
2018-03-18T02:53:43.127Z,1011.8
2018-03-18T02:54:45.532Z,1011.7
2018-03-18T02:55:47.951Z,1011.8
2018-03-18T02:56:50.360Z,1011.8
2018-03-18T02:57:52.778Z,1011.7
2018-03-18T02:58:55.201Z,1011.7
2018-03-18T02:59:57.606Z,1011.7
2018-03-18T03:01:00.016Z,1011.8
2018-03-18T03:02:02.768Z,1011.8
2018-03-18T03:03:05.144Z,1011.7
2018-03-18T03:04:07.565Z,1011.8
2018-03-18T03:05:09.980Z,1011.8
2018-03-18T03:06:12.396Z,1011.7
2018-03-18T03:07:14.822Z,1011.7
2018-03-18T03:08:17.530Z,1011.7
2018-03-18T03:09:19.938Z,1011.8
2018-03-18T03:10:22.356Z,1011.7
2018-03-18T03:11:24.771Z,1011.7
2018-03-18T03:12:27.184Z,1011.8
2018-03-18T03:13:29.592Z,1011.8
2018-03-18T03:14:32.009Z,1011.8
2018-03-18T03:15:34.428Z,1011.8
2018-03-18T03:16:37.412Z,1011.8
2018-03-18T03:17:39.826Z,1011.7
2018-03-18T03:18:42.252Z,1011.8
2018-03-18T03:19:44.659Z,1011.9
2018-03-18T03:20:47.063Z,1011.7
2018-03-18T03:21:49.480Z,1011.7
2018-03-18T03:22:51.893Z,1011.9
2018-03-18T03:23:54.307Z,1011.7
2018-03-18T03:24:56.727Z,1011.7
2018-03-18T03:25:59.125Z,1011.6
2018-03-18T03:27:01.546Z,1011.7
2018-03-18T03:28:04.244Z,1011.7
2018-03-18T03:29:06.669Z,1011.8
2018-03-18T03:30:09.076Z,1011.7
2018-03-18T03:31:11.490Z,1011.7
2018-03-18T03:32:14.216Z,1011.8
2018-03-18T03:33:16.644Z,1011.7
2018-03-18T03:34:19.090Z,1011.7
2018-03-18T03:35:21.479Z,1011.7
2018-03-18T03:36:23.886Z,1011.7
2018-03-18T03:37:26.305Z,1011.7
2018-03-18T03:38:28.712Z,1011.8
2018-03-18T03:39:31.125Z,1011.7
2018-03-18T03:40:33.528Z,1011.7
2018-03-18T03:41:35.944Z,1011.8
2018-03-18T03:42:38.366Z,1011.8
2018-03-18T03:43:41.072Z,1011.7
2018-03-18T03:44:43.487Z,1011.7
2018-03-18T03:45:45.900Z,1011.8
2018-03-18T03:46:48.314Z,1011.8
2018-03-18T03:47:50.721Z,1011.8
2018-03-18T03:48:53.134Z,1011.8
2018-03-18T03:49:55.848Z,1011.7
2018-03-18T03:50:58.264Z,1011.7
2018-03-18T03:52:00.970Z,1011.7
2018-03-18T03:53:03.391Z,1011.7
2018-03-18T03:54:06.120Z,1011.7
2018-03-18T03:55:08.818Z,1011.8
2018-03-18T03:56:11.520Z,1011.7
2018-03-18T03:57:13.950Z,1011.8
2018-03-18T03:58:16.357Z,1011.7
2018-03-18T03:59:18.764Z,1011.8
2018-03-18T04:00:21.188Z,1011.8
2018-03-18T04:01:23.599Z,1011.9
2018-03-18T04:02:26.009Z,1011.7
2018-03-18T04:03:28.428Z,1011.8
2018-03-18T04:04:30.831Z,1011.8
2018-03-18T04:05:33.545Z,1011.8
2018-03-18T04:06:35.952Z,1011.7
2018-03-18T04:07:38.366Z,1011.8
2018-03-18T04:08:40.776Z,1011.8
2018-03-18T04:09:43.192Z,1011.8
2018-03-18T04:10:45.604Z,1011.8
2018-03-18T04:11:48.305Z,1011.8
2018-03-18T04:12:50.722Z,1011.8
2018-03-18T04:13:53.149Z,1011.8
2018-03-18T04:14:55.567Z,1011.9
2018-03-18T04:15:57.969Z,1011.8
2018-03-18T04:17:00.384Z,1011.8
2018-03-18T04:18:03.396Z,1011.9
2018-03-18T04:19:05.809Z,1011.8
2018-03-18T04:20:08.226Z,1011.9
2018-03-18T04:21:10.633Z,1011.9
2018-03-18T04:22:13.042Z,1011.9
2018-03-18T04:23:15.472Z,1011.8
2018-03-18T04:24:17.884Z,1011.9
2018-03-18T04:25:20.301Z,1011.9
2018-03-18T04:26:22.712Z,1011.9
2018-03-18T04:27:25.419Z,1011.9
2018-03-18T04:28:27.830Z,1012
2018-03-18T04:29:30.238Z,1012
2018-03-18T04:30:32.656Z,1012
2018-03-18T04:31:35.062Z,1011.9
2018-03-18T04:32:37.492Z,1012
2018-03-18T04:33:39.896Z,1012
2018-03-18T04:34:42.311Z,1012
2018-03-18T04:35:45.016Z,1012
2018-03-18T04:36:47.720Z,1012.2
2018-03-18T04:37:50.140Z,1012.1
2018-03-18T04:38:52.553Z,1012
2018-03-18T04:39:54.967Z,1012
2018-03-18T04:40:57.387Z,1012
2018-03-18T04:41:59.808Z,1012
2018-03-18T04:43:02.221Z,1012
2018-03-18T04:44:04.633Z,1012
2018-03-18T04:45:07.047Z,1012.1
2018-03-18T04:46:09.465Z,1012.1
2018-03-18T04:47:11.868Z,1012.1
2018-03-18T04:48:14.289Z,1012
2018-03-18T04:49:16.690Z,1012
2018-03-18T04:50:19.111Z,1012.1
2018-03-18T04:51:21.523Z,1012.1
2018-03-18T04:52:24.237Z,1012.2
2018-03-18T04:53:26.652Z,1012
2018-03-18T04:54:29.075Z,1012.1
2018-03-18T04:55:31.485Z,1012.1
2018-03-18T04:56:33.909Z,1012.2
2018-03-18T04:57:36.323Z,1012
2018-03-18T04:58:38.735Z,1012.2
2018-03-18T04:59:41.145Z,1012.1
2018-03-18T05:00:43.563Z,1012.2
2018-03-18T05:01:45.982Z,1012
2018-03-18T05:02:48.707Z,1012.1
2018-03-18T05:03:51.117Z,1012.1
2018-03-18T05:04:53.536Z,1012.1
2018-03-18T05:05:56.221Z,1012.2
2018-03-18T05:06:58.644Z,1012.1
2018-03-18T05:08:01.053Z,1012.1
2018-03-18T05:09:03.749Z,1012.2
2018-03-18T05:10:06.173Z,1012.2
2018-03-18T05:11:08.563Z,1012.2
2018-03-18T05:12:11.269Z,1012.3
2018-03-18T05:13:13.976Z,1012.2
2018-03-18T05:14:16.379Z,1012.2
2018-03-18T05:15:18.793Z,1012.2
2018-03-18T05:16:21.486Z,1012.2
2018-03-18T05:17:23.897Z,1012.3
2018-03-18T05:18:26.313Z,1012.3
2018-03-18T05:19:28.730Z,1012.3
2018-03-18T05:20:31.414Z,1012.2
2018-03-18T05:21:33.835Z,1012.2
2018-03-18T05:22:36.251Z,1012.3
2018-03-18T05:23:38.662Z,1012.3
2018-03-18T05:24:41.362Z,1012.3
2018-03-18T05:25:44.056Z,1012.2
2018-03-18T05:26:46.780Z,1012.2
2018-03-18T05:27:49.194Z,1012.3
2018-03-18T05:28:51.611Z,1012.2
2018-03-18T05:29:54.019Z,1012.2
2018-03-18T05:30:56.425Z,1012.2
2018-03-18T05:31:58.849Z,1012.3
2018-03-18T05:33:01.541Z,1012.4
2018-03-18T05:34:03.960Z,1012.4
2018-03-18T05:35:06.369Z,1012.2
2018-03-18T05:36:09.074Z,1012.3
2018-03-18T05:37:11.479Z,1012.3
2018-03-18T05:38:13.896Z,1012.2
2018-03-18T05:39:16.604Z,1012.4
2018-03-18T05:40:19.020Z,1012.3
2018-03-18T05:41:21.430Z,1012.3
2018-03-18T05:42:23.839Z,1012.3
2018-03-18T05:43:26.255Z,1012.3
2018-03-18T05:44:28.965Z,1012.3
2018-03-18T05:45:31.665Z,1012.3
2018-03-18T05:46:34.082Z,1012.3
2018-03-18T05:47:36.500Z,1012.3
2018-03-18T05:48:38.918Z,1012.4
2018-03-18T05:49:41.337Z,1012.3
2018-03-18T05:50:43.750Z,1012.4
2018-03-18T05:51:46.461Z,1012.4
2018-03-18T05:52:48.870Z,1012.3
2018-03-18T05:53:51.582Z,1012.4
2018-03-18T05:54:54.269Z,1012.4
2018-03-18T05:55:56.699Z,1012.4
2018-03-18T05:56:59.399Z,1012.4
2018-03-18T05:58:01.800Z,1012.5
2018-03-18T05:59:04.220Z,1012.4
2018-03-18T06:00:06.624Z,1012.5
2018-03-18T06:01:09.042Z,1012.4
2018-03-18T06:02:11.463Z,1012.4
2018-03-18T06:03:14.451Z,1012.5
2018-03-18T06:04:17.146Z,1012.4
2018-03-18T06:05:19.572Z,1012.5
2018-03-18T06:06:21.978Z,1012.5
2018-03-18T06:07:24.384Z,1012.5
2018-03-18T06:08:26.798Z,1012.5
2018-03-18T06:09:29.201Z,1012.6
2018-03-18T06:10:31.632Z,1012.5
2018-03-18T06:11:34.040Z,1012.5
2018-03-18T06:12:36.449Z,1012.6
2018-03-18T06:13:39.188Z,1012.5
2018-03-18T06:14:41.589Z,1012.5
2018-03-18T06:15:44.012Z,1012.5
2018-03-18T06:16:46.432Z,1012.6
2018-03-18T06:17:48.838Z,1012.6
2018-03-18T06:18:51.256Z,1012.6
2018-03-18T06:19:53.662Z,1012.7
2018-03-18T06:20:56.079Z,1012.6
2018-03-18T06:21:58.483Z,1012.6
2018-03-18T06:23:00.900Z,1012.6
2018-03-18T06:24:03.315Z,1012.7
2018-03-18T06:25:05.735Z,1012.7
2018-03-18T06:26:08.151Z,1012.7
2018-03-18T06:27:10.565Z,1012.7
2018-03-18T06:28:12.972Z,1012.7
2018-03-18T06:29:15.685Z,1012.7
2018-03-18T06:30:18.110Z,1012.7
2018-03-18T06:31:20.519Z,1012.7
2018-03-18T06:32:22.938Z,1012.8
2018-03-18T06:33:25.352Z,1012.7
2018-03-18T06:34:28.046Z,1012.8
2018-03-18T06:35:30.458Z,1012.7
2018-03-18T06:36:32.860Z,1012.8
2018-03-18T06:37:35.301Z,1012.8
2018-03-18T06:38:37.700Z,1012.8
2018-03-18T06:39:40.109Z,1012.8
2018-03-18T06:40:42.528Z,1012.8
2018-03-18T06:41:44.946Z,1012.8
2018-03-18T06:42:47.359Z,1012.8
2018-03-18T06:43:49.757Z,1012.8
2018-03-18T06:44:52.171Z,1012.8
2018-03-18T06:45:54.737Z,1012.8
2018-03-18T06:46:57.657Z,1012.9
2018-03-18T06:48:00.455Z,1012.8
2018-03-18T06:49:03.122Z,1012.8
2018-03-18T06:50:06.239Z,1012.7
2018-03-18T06:51:08.688Z,1012.7
2018-03-18T06:52:11.407Z,1012.8
2018-03-18T06:53:13.810Z,1012.8
2018-03-18T06:54:16.222Z,1012.8
2018-03-18T06:55:18.639Z,1012.9
2018-03-18T06:56:21.343Z,1012.8
2018-03-18T06:57:23.761Z,1012.8
2018-03-18T06:58:26.173Z,1012.9
2018-03-18T06:59:28.594Z,1012.8
2018-03-18T07:00:31.017Z,1012.8
2018-03-18T07:01:33.769Z,1012.8
2018-03-18T07:02:36.132Z,1012.8
2018-03-18T07:03:38.841Z,1012.9
2018-03-18T07:04:41.245Z,1012.8
2018-03-18T07:05:43.673Z,1012.8
2018-03-18T07:06:46.082Z,1012.9
2018-03-18T07:07:48.499Z,1012.9
2018-03-18T07:08:50.901Z,1012.9
2018-03-18T07:09:53.619Z,1012.8
2018-03-18T07:10:56.034Z,1012.8
2018-03-18T07:11:58.451Z,1012.9
2018-03-18T07:13:01.153Z,1012.9
2018-03-18T07:14:03.855Z,1012.9
2018-03-18T07:15:06.274Z,1013
2018-03-18T07:16:08.681Z,1012.9
2018-03-18T07:17:11.086Z,1013
2018-03-18T07:18:13.500Z,1012.9
2018-03-18T07:19:15.915Z,1013
2018-03-18T07:20:18.327Z,1013
2018-03-18T07:21:20.739Z,1013
2018-03-18T07:22:23.153Z,1012.8
2018-03-18T07:23:25.568Z,1012.9
2018-03-18T07:24:27.990Z,1012.9
2018-03-18T07:25:30.439Z,1013
2018-03-18T07:26:32.815Z,1013
2018-03-18T07:27:35.243Z,1012.9
2018-03-18T07:28:37.677Z,1012.9
2018-03-18T07:29:40.078Z,1013
2018-03-18T07:30:42.492Z,1012.9
2018-03-18T07:31:45.490Z,1013.1
2018-03-18T07:32:47.904Z,1013.1
2018-03-18T07:33:50.323Z,1013
2018-03-18T07:34:52.737Z,1013.1
2018-03-18T07:35:55.140Z,1013
2018-03-18T07:36:57.562Z,1013
2018-03-18T07:38:00.285Z,1013
2018-03-18T07:39:02.696Z,1013
2018-03-18T07:40:05.113Z,1013
2018-03-18T07:41:07.535Z,1012.9
2018-03-18T07:42:09.969Z,1013
2018-03-18T07:43:12.674Z,1013
2018-03-18T07:44:15.093Z,1013
2018-03-18T07:45:17.497Z,1013
2018-03-18T07:46:20.202Z,1013
2018-03-18T07:47:22.620Z,1012.9
2018-03-18T07:48:25.036Z,1012.9
2018-03-18T07:49:27.457Z,1013
2018-03-18T07:50:30.228Z,1012.9
2018-03-18T07:51:32.613Z,1013
2018-03-18T07:52:35.025Z,1012.9
2018-03-18T07:53:37.741Z,1013
2018-03-18T07:54:40.156Z,1013
2018-03-18T07:55:42.575Z,1013
2018-03-18T07:56:44.993Z,1013
2018-03-18T07:57:47.408Z,1012.9
2018-03-18T07:58:50.112Z,1012.8
2018-03-18T07:59:52.830Z,1012.9
2018-03-18T08:00:55.228Z,1012.9
2018-03-18T08:01:57.684Z,1012.9
2018-03-18T08:03:00.078Z,1012.9
2018-03-18T08:04:02.793Z,1013
2018-03-18T08:05:05.497Z,1013
2018-03-18T08:06:08.201Z,1013
2018-03-18T08:07:10.622Z,1013
2018-03-18T08:08:13.354Z,1013
2018-03-18T08:09:15.742Z,1012.9
2018-03-18T08:10:18.155Z,1012.9
2018-03-18T08:11:20.864Z,1012.9
2018-03-18T08:12:23.281Z,1013
2018-03-18T08:13:25.697Z,1012.9
2018-03-18T08:14:28.118Z,1012.9
2018-03-18T08:15:30.540Z,1012.9
2018-03-18T08:16:32.967Z,1012.8
2018-03-18T08:17:35.386Z,1013
2018-03-18T08:18:37.806Z,1012.9
2018-03-18T08:19:40.220Z,1012.8
2018-03-18T08:20:42.638Z,1012.8
2018-03-18T08:21:45.059Z,1012.9
2018-03-18T08:22:47.790Z,1013
2018-03-18T08:23:50.190Z,1012.9
2018-03-18T08:24:52.896Z,1013
2018-03-18T08:25:55.324Z,1012.9
2018-03-18T08:26:57.740Z,1012.9
2018-03-18T08:28:00.164Z,1013
2018-03-18T08:29:02.871Z,1012.9
2018-03-18T08:30:05.286Z,1012.9
2018-03-18T08:31:07.728Z,1012.8
2018-03-18T08:32:10.148Z,1012.8
2018-03-18T08:33:12.574Z,1012.8
2018-03-18T08:34:15.020Z,1012.8
2018-03-18T08:35:17.739Z,1012.8
2018-03-18T08:36:20.165Z,1012.9
2018-03-18T08:37:22.586Z,1012.9
2018-03-18T08:38:25.008Z,1012.8
2018-03-18T08:39:27.712Z,1012.8
2018-03-18T08:40:30.140Z,1012.9
2018-03-18T08:41:32.560Z,1012.9
2018-03-18T08:42:35.278Z,1012.9
2018-03-18T08:43:37.711Z,1013
2018-03-18T08:44:40.131Z,1012.9
2018-03-18T08:45:42.555Z,1012.9
2018-03-18T08:46:44.997Z,1012.9
2018-03-18T08:47:47.400Z,1012.8
2018-03-18T08:48:49.826Z,1012.9
2018-03-18T08:49:52.242Z,1012.8
2018-03-18T08:50:54.663Z,1012.9
2018-03-18T08:51:57.100Z,1012.9
2018-03-18T08:52:59.811Z,1013
2018-03-18T08:54:02.232Z,1012.9
2018-03-18T08:55:04.650Z,1012.8
2018-03-18T08:56:07.072Z,1012.9
2018-03-18T08:57:09.547Z,1012.9
2018-03-18T08:58:12.360Z,1012.9
2018-03-18T08:59:14.770Z,1012.9
2018-03-18T09:00:17.206Z,1012.9
2018-03-18T09:01:19.751Z,1012.8
2018-03-18T09:02:22.095Z,1012.8
2018-03-18T09:03:24.521Z,1012.8
2018-03-18T09:04:26.935Z,1012.8
2018-03-18T09:05:29.404Z,1012.8
2018-03-18T09:06:32.131Z,1012.8
2018-03-18T09:07:35.154Z,1012.8
2018-03-18T09:08:37.821Z,1012.9
2018-03-18T09:09:40.872Z,1012.8
2018-03-18T09:10:43.774Z,1012.9
2018-03-18T09:11:46.903Z,1012.7
2018-03-18T09:12:51.470Z,1012.9
2018-03-18T09:13:54.777Z,1012.9
2018-03-18T09:14:58.149Z,1013
2018-03-18T09:16:00.876Z,1012.9
2018-03-18T09:17:03.299Z,1012.8
2018-03-18T09:18:05.715Z,1012.9
2018-03-18T09:19:08.438Z,1012.9
2018-03-18T09:20:10.858Z,1012.9
2018-03-18T09:21:13.597Z,1012.8
2018-03-18T09:22:16.035Z,1012.7
2018-03-18T09:23:18.726Z,1012.7
2018-03-18T09:24:21.153Z,1012.7
2018-03-18T09:25:23.576Z,1012.9
2018-03-18T09:26:25.998Z,1012.8
2018-03-18T09:27:28.426Z,1012.7
2018-03-18T09:28:30.850Z,1012.8
2018-03-18T09:29:33.278Z,1012.9
2018-03-18T09:30:35.717Z,1012.7
2018-03-18T09:31:38.167Z,1012.8
2018-03-18T09:32:40.571Z,1012.8
2018-03-18T09:33:42.995Z,1012.6
2018-03-18T09:34:45.721Z,1012.8
2018-03-18T09:35:48.149Z,1012.7
2018-03-18T09:36:50.563Z,1012.8
2018-03-18T09:37:53.000Z,1012.8
2018-03-18T09:38:55.424Z,1012.8
2018-03-18T09:39:57.843Z,1012.6
2018-03-18T09:41:00.279Z,1012.7
2018-03-18T09:42:02.706Z,1012.8
2018-03-18T09:43:05.420Z,1012.8
2018-03-18T09:44:07.850Z,1012.7
2018-03-18T09:45:10.558Z,1012.8
2018-03-18T09:46:13.275Z,1012.7
2018-03-18T09:47:15.701Z,1012.7
2018-03-18T09:48:18.713Z,1012.7
2018-03-18T09:49:21.515Z,1012.8
2018-03-18T09:50:23.923Z,1012.6
2018-03-18T09:51:26.354Z,1012.6
2018-03-18T09:52:28.787Z,1012.6
2018-03-18T09:53:31.210Z,1012.7
2018-03-18T09:54:33.624Z,1012.7
2018-03-18T09:55:36.057Z,1012.6
2018-03-18T09:56:38.486Z,1012.6
2018-03-18T09:57:40.920Z,1012.5
2018-03-18T09:58:43.642Z,1012.7
2018-03-18T09:59:46.064Z,1012.7
2018-03-18T10:00:48.490Z,1012.6
2018-03-18T10:01:50.917Z,1012.7
2018-03-18T10:02:53.342Z,1012.6
2018-03-18T10:03:55.769Z,1012.7
2018-03-18T10:04:58.189Z,1012.7
2018-03-18T10:06:00.924Z,1012.8
2018-03-18T10:07:03.647Z,1012.6
2018-03-18T10:08:06.072Z,1012.6
2018-03-18T10:09:08.798Z,1012.7
2018-03-18T10:10:11.233Z,1012.8
2018-03-18T10:11:13.659Z,1012.7
2018-03-18T10:12:16.087Z,1012.7
2018-03-18T10:13:18.503Z,1012.7
2018-03-18T10:14:20.930Z,1012.6
2018-03-18T10:15:23.362Z,1012.6
2018-03-18T10:16:25.992Z,1012.6
2018-03-18T10:17:28.428Z,1012.6
2018-03-18T10:18:30.852Z,1012.7
2018-03-18T10:19:33.879Z,1012.7
2018-03-18T10:20:36.316Z,1012.7
2018-03-18T10:21:39.320Z,1012.8
2018-03-18T10:22:41.740Z,1012.8
2018-03-18T10:23:44.176Z,1012.7
2018-03-18T10:24:46.608Z,1012.8
2018-03-18T10:25:49.040Z,1012.6
2018-03-18T10:26:51.476Z,1012.7
2018-03-18T10:27:53.894Z,1012.6
2018-03-18T10:28:56.631Z,1012.7
2018-03-18T10:29:59.340Z,1012.8
2018-03-18T10:31:02.072Z,1012.6
2018-03-18T10:32:04.809Z,1012.7
2018-03-18T10:33:07.228Z,1012.6
2018-03-18T10:34:09.663Z,1012.6
2018-03-18T10:35:12.096Z,1012.7
2018-03-18T10:36:14.816Z,1012.4
2018-03-18T10:37:17.249Z,1012.7
2018-03-18T10:38:19.968Z,1012.6
2018-03-18T10:39:22.395Z,1012.6
2018-03-18T10:40:25.131Z,1012.5
2018-03-18T10:41:27.606Z,1012.6
2018-03-18T10:42:29.984Z,1012.5
2018-03-18T10:43:32.407Z,1012.6
2018-03-18T10:44:34.842Z,1012.5
2018-03-18T10:45:37.281Z,1012.5
2018-03-18T10:46:39.717Z,1012.4
2018-03-18T10:47:42.144Z,1012.6
2018-03-18T10:48:44.638Z,1012.5
2018-03-18T10:49:47.644Z,1012.6
2018-03-18T10:50:50.070Z,1012.6
2018-03-18T10:51:52.499Z,1012.6
2018-03-18T10:52:54.942Z,1012.6
2018-03-18T10:53:57.657Z,1012.5
2018-03-18T10:55:00.391Z,1012.7
2018-03-18T10:56:02.816Z,1012.7
2018-03-18T10:57:05.246Z,1012.6
2018-03-18T10:58:07.679Z,1012.5
2018-03-18T10:59:10.403Z,1012.5
2018-03-18T11:00:12.828Z,1012.5
2018-03-18T11:01:15.263Z,1012.5
2018-03-18T11:02:17.680Z,1012.5
2018-03-18T11:03:20.425Z,1012.5
2018-03-18T11:04:22.858Z,1012.4
2018-03-18T11:05:25.285Z,1012.4
2018-03-18T11:06:27.713Z,1012.4
2018-03-18T11:07:30.180Z,1012.4
2018-03-18T11:08:32.570Z,1012.6
2018-03-18T11:09:35.007Z,1012.5
2018-03-18T11:10:37.438Z,1012.4
2018-03-18T11:11:40.175Z,1012.4
2018-03-18T11:12:42.590Z,1012.4
2018-03-18T11:13:45.035Z,1012.5
2018-03-18T11:14:47.458Z,1012.6
2018-03-18T11:15:49.888Z,1012.5
2018-03-18T11:16:52.327Z,1012.4
2018-03-18T11:17:55.042Z,1012.5
2018-03-18T11:18:57.472Z,1012.5
2018-03-18T11:20:00.478Z,1012.6
2018-03-18T11:21:02.904Z,1012.4
2018-03-18T11:22:05.341Z,1012.4
2018-03-18T11:23:07.772Z,1012.5
2018-03-18T11:24:10.202Z,1012.5
2018-03-18T11:25:12.632Z,1012.4
2018-03-18T11:26:15.070Z,1012.3
2018-03-18T11:27:17.494Z,1012.3
2018-03-18T11:28:19.935Z,1012.3
2018-03-18T11:29:22.649Z,1012.5
2018-03-18T11:30:25.087Z,1012.3
2018-03-18T11:31:27.512Z,1012.3
2018-03-18T11:32:29.942Z,1012.3
2018-03-18T11:33:32.373Z,1012.4
2018-03-18T11:34:35.011Z,1012.4
2018-03-18T11:35:38.110Z,1012.3
2018-03-18T11:36:42.537Z,1012.3
2018-03-18T11:37:45.692Z,1012.3
2018-03-18T11:38:50.147Z,1012.3
2018-03-18T11:39:54.463Z,1012.3
2018-03-18T11:40:56.895Z,1012.2
2018-03-18T11:41:59.617Z,1012.3
2018-03-18T11:43:02.054Z,1012.2
2018-03-18T11:44:04.492Z,1012.3
2018-03-18T11:45:06.920Z,1012.3
2018-03-18T11:46:09.631Z,1012.3
2018-03-18T11:47:12.064Z,1012.2
2018-03-18T11:48:14.497Z,1012.3
2018-03-18T11:49:17.210Z,1012.2
2018-03-18T11:50:19.643Z,1012.2
2018-03-18T11:51:22.062Z,1012.2
2018-03-18T11:52:24.493Z,1012.2
2018-03-18T11:53:26.941Z,1012.1
2018-03-18T11:54:29.360Z,1012.2
2018-03-18T11:55:31.785Z,1012.2
2018-03-18T11:56:34.218Z,1012.2
2018-03-18T11:57:36.664Z,1012.1
2018-03-18T11:58:39.097Z,1012.1
2018-03-18T11:59:41.530Z,1012.1
2018-03-18T12:00:43.950Z,1012.2
2018-03-18T12:01:46.377Z,1012
2018-03-18T12:02:48.822Z,1012.1
2018-03-18T12:03:51.248Z,1012
2018-03-18T12:04:53.964Z,1012
2018-03-18T12:05:56.395Z,1012
2018-03-18T12:06:58.829Z,1012
2018-03-18T12:08:01.256Z,1012
2018-03-18T12:09:03.690Z,1012
2018-03-18T12:10:06.435Z,1012
2018-03-18T12:11:09.164Z,1012
2018-03-18T12:12:11.593Z,1012
2018-03-18T12:13:14.316Z,1012.1
2018-03-18T12:14:17.041Z,1012
2018-03-18T12:15:19.466Z,1012
2018-03-18T12:16:21.893Z,1012
2018-03-18T12:17:24.323Z,1011.9
2018-03-18T12:18:26.742Z,1012
2018-03-18T12:19:29.214Z,1011.9
2018-03-18T12:20:31.600Z,1011.9
2018-03-18T12:21:34.037Z,1012
2018-03-18T12:22:36.470Z,1012
2018-03-18T12:23:38.905Z,1012
2018-03-18T12:24:41.620Z,1012
2018-03-18T12:25:44.053Z,1011.9
2018-03-18T12:26:46.482Z,1012.1
2018-03-18T12:27:48.925Z,1012.1
2018-03-18T12:28:51.645Z,1012
2018-03-18T12:29:54.085Z,1012
2018-03-18T12:30:56.776Z,1011.9
2018-03-18T12:32:00.193Z,1011.9
2018-03-18T12:33:02.867Z,1011.8
2018-03-18T12:34:06.376Z,1011.9
2018-03-18T12:35:10.400Z,1011.9
2018-03-18T12:36:13.373Z,1012
2018-03-18T12:37:15.812Z,1011.9
2018-03-18T12:38:18.533Z,1011.9
2018-03-18T12:39:20.976Z,1011.8
2018-03-18T12:40:23.414Z,1011.9
2018-03-18T12:41:25.842Z,1011.8
2018-03-18T12:42:28.271Z,1011.8
2018-03-18T12:43:31.004Z,1011.8
2018-03-18T12:44:33.433Z,1011.8
2018-03-18T12:45:35.858Z,1011.8
2018-03-18T12:46:38.292Z,1011.8
2018-03-18T12:47:40.720Z,1011.8
2018-03-18T12:48:43.152Z,1011.8
2018-03-18T12:49:45.586Z,1011.8
2018-03-18T12:50:48.013Z,1011.8
2018-03-18T12:51:50.444Z,1011.6
2018-03-18T12:52:52.889Z,1011.7
2018-03-18T12:53:55.329Z,1011.7
2018-03-18T12:54:57.750Z,1011.7
2018-03-18T12:56:00.189Z,1011.8
2018-03-18T12:57:02.917Z,1011.8
2018-03-18T12:58:05.347Z,1011.8
2018-03-18T12:59:08.066Z,1011.7
2018-03-18T13:00:10.488Z,1011.7
2018-03-18T13:01:12.917Z,1011.7
2018-03-18T13:02:15.371Z,1011.7
2018-03-18T13:03:17.801Z,1011.7
2018-03-18T13:04:20.521Z,1011.7
2018-03-18T13:05:22.959Z,1011.7